createdAt,value
2022-08-31T00:00:11.290Z,24.92
2022-08-31T00:02:57.534Z,24.94
2022-08-31T00:05:24.406Z,24.92
2022-08-31T00:07:51.931Z,24.84
2022-08-31T00:10:20.385Z,24.85
2022-08-31T00:13:00.136Z,24.86
2022-08-31T00:15:27.802Z,24.85
2022-08-31T00:17:56.191Z,24.85
2022-08-31T00:20:32.489Z,24.80
2022-08-31T00:23:05.116Z,24.85
2022-08-31T00:25:33.737Z,24.78
2022-08-31T00:28:00.287Z,24.85
2022-08-31T00:30:26.968Z,24.74
2022-08-31T00:32:53.591Z,24.85
2022-08-31T00:35:24.115Z,24.77
2022-08-31T00:37:50.683Z,24.78
2022-08-31T00:40:17.348Z,24.80
2022-08-31T00:42:43.966Z,24.81
2022-08-31T00:45:11.070Z,24.80
2022-08-31T00:47:38.117Z,24.75
2022-08-31T00:50:07.989Z,24.68
2022-08-31T00:52:39.012Z,24.73
2022-08-31T00:55:13.170Z,24.70
2022-08-31T00:57:41.709Z,24.69
2022-08-31T01:00:12.259Z,24.69
2022-08-31T01:02:39.287Z,24.69
2022-08-31T01:05:07.094Z,24.65
2022-08-31T01:07:33.705Z,24.65
2022-08-31T01:10:00.431Z,24.63
2022-08-31T01:12:27.906Z,24.59
2022-08-31T01:14:55.504Z,24.59
2022-08-31T01:17:22.175Z,24.61
2022-08-31T01:20:14.189Z,24.66
2022-08-31T01:23:02.281Z,24.63
2022-08-31T01:25:33.773Z,24.56
2022-08-31T01:28:02.659Z,24.58
2022-08-31T01:30:29.220Z,24.61
2022-08-31T01:32:55.800Z,24.54
2022-08-31T01:35:22.366Z,24.51
2022-08-31T01:37:49.532Z,24.52
2022-08-31T01:40:17.169Z,24.48
2022-08-31T01:42:43.760Z,24.47
2022-08-31T01:45:10.837Z,24.51
2022-08-31T01:47:39.356Z,24.45
2022-08-31T01:50:06.351Z,24.41
2022-08-31T01:52:34.215Z,24.42
2022-08-31T01:55:03.532Z,24.39
2022-08-31T01:57:33.411Z,24.45
2022-08-31T02:00:03.142Z,24.44
2022-08-31T02:02:29.795Z,24.45
2022-08-31T02:04:56.404Z,24.48
2022-08-31T02:07:23.012Z,24.32
2022-08-31T02:09:49.574Z,24.30
2022-08-31T02:12:17.492Z,24.39
2022-08-31T02:14:44.064Z,24.36
2022-08-31T02:17:10.780Z,24.42
2022-08-31T02:19:37.359Z,24.26
2022-08-31T02:22:04.052Z,24.31
2022-08-31T02:24:30.671Z,24.38
2022-08-31T02:26:57.276Z,24.35
2022-08-31T02:29:23.911Z,24.31
2022-08-31T02:31:50.744Z,24.31
2022-08-31T02:34:17.437Z,24.26
2022-08-31T02:36:45.342Z,24.27
2022-08-31T02:39:12.577Z,24.30
2022-08-31T02:41:41.645Z,24.16
2022-08-31T02:44:08.280Z,24.25
2022-08-31T02:46:35.036Z,24.17
2022-08-31T02:49:01.971Z,24.25
2022-08-31T02:51:28.572Z,24.18
2022-08-31T02:53:55.251Z,24.15
2022-08-31T02:56:22.691Z,24.14
2022-08-31T02:58:54.919Z,24.13
2022-08-31T03:01:23.164Z,24.12
2022-08-31T03:03:49.935Z,24.09
2022-08-31T03:06:17.559Z,24.08
2022-08-31T03:08:44.111Z,24.15
2022-08-31T03:11:10.850Z,24.07
2022-08-31T03:13:39.321Z,24.04
2022-08-31T03:16:06.644Z,24.10
2022-08-31T03:18:33.772Z,24.07
2022-08-31T03:21:00.445Z,24.05
2022-08-31T03:23:27.095Z,24.04
2022-08-31T03:25:53.658Z,24.00
2022-08-31T03:28:20.315Z,24.02
2022-08-31T03:30:46.964Z,24.01
2022-08-31T03:33:14.036Z,23.99
2022-08-31T03:35:44.716Z,23.96
2022-08-31T03:38:13.042Z,23.92
2022-08-31T03:40:43.565Z,23.96
2022-08-31T03:43:11.471Z,23.94
2022-08-31T03:45:40.109Z,23.92
2022-08-31T03:48:12.004Z,23.95
2022-08-31T03:50:40.399Z,23.92
2022-08-31T03:53:07.872Z,23.89
2022-08-31T03:55:36.423Z,23.96
2022-08-31T03:58:03.231Z,23.96
2022-08-31T04:00:31.364Z,24.00
2022-08-31T04:02:59.787Z,23.92
2022-08-31T04:05:27.963Z,23.86
2022-08-31T04:07:55.072Z,23.79
2022-08-31T04:10:23.082Z,23.86
2022-08-31T04:12:50.297Z,23.80
2022-08-31T04:15:17.962Z,23.81
2022-08-31T04:17:45.532Z,23.81
2022-08-31T04:20:12.160Z,23.82
2022-08-31T04:22:38.735Z,23.80
2022-08-31T04:25:05.676Z,23.81
2022-08-31T04:27:32.269Z,23.79
2022-08-31T04:29:58.869Z,23.79
2022-08-31T04:32:25.525Z,23.83
2022-08-31T04:34:56.115Z,23.80
2022-08-31T04:37:23.224Z,23.78
2022-08-31T04:39:50.838Z,23.81
2022-08-31T04:42:17.908Z,23.74
2022-08-31T04:44:44.491Z,23.72
2022-08-31T04:47:11.093Z,23.76
2022-08-31T04:49:37.739Z,23.69
2022-08-31T04:52:04.328Z,23.65
2022-08-31T04:54:30.888Z,23.69
2022-08-31T04:56:59.195Z,23.77
2022-08-31T04:59:27.440Z,23.68
2022-08-31T05:01:54.805Z,23.72
2022-08-31T05:04:24.574Z,23.66
2022-08-31T05:06:51.355Z,23.63
2022-08-31T05:09:20.584Z,23.63
2022-08-31T05:11:47.495Z,23.62
2022-08-31T05:14:14.065Z,23.65
2022-08-31T05:16:41.767Z,23.71
2022-08-31T05:19:08.805Z,23.71
2022-08-31T05:21:37.758Z,23.65
2022-08-31T05:24:09.447Z,23.62
2022-08-31T05:26:42.125Z,23.68
2022-08-31T05:29:09.395Z,23.72
2022-08-31T05:31:38.108Z,23.67
2022-08-31T05:34:05.639Z,23.70
2022-08-31T05:36:33.248Z,23.69
2022-08-31T05:39:01.464Z,23.64
2022-08-31T05:41:29.530Z,23.61
2022-08-31T05:43:56.090Z,23.68
2022-08-31T05:46:22.845Z,23.59
2022-08-31T05:48:50.088Z,23.64
2022-08-31T05:51:18.249Z,23.66
2022-08-31T05:53:45.551Z,23.54
2022-08-31T05:56:14.465Z,23.56
2022-08-31T05:58:46.207Z,23.59
2022-08-31T06:01:20.135Z,23.63
2022-08-31T06:03:47.327Z,23.56
2022-08-31T06:06:14.473Z,23.56
2022-08-31T06:08:42.233Z,23.54
2022-08-31T06:11:14.268Z,23.59
2022-08-31T06:13:41.932Z,23.56
2022-08-31T06:16:09.786Z,23.64
2022-08-31T06:18:41.019Z,23.56
2022-08-31T06:21:09.571Z,23.63
2022-08-31T06:23:39.736Z,23.67
2022-08-31T06:26:12.717Z,23.72
2022-08-31T06:28:40.613Z,23.57
2022-08-31T06:31:12.146Z,23.56
2022-08-31T06:33:39.941Z,23.62
2022-08-31T06:36:11.495Z,23.63
2022-08-31T06:38:38.671Z,23.40
2022-08-31T06:41:12.482Z,23.59
2022-08-31T06:43:39.547Z,23.52
2022-08-31T06:46:06.812Z,23.51
2022-08-31T06:48:34.830Z,23.58
2022-08-31T06:51:01.431Z,23.46
2022-08-31T06:53:28.870Z,23.49
2022-08-31T06:55:55.727Z,23.49
2022-08-31T06:58:22.288Z,23.52
2022-08-31T07:00:49.391Z,23.53
2022-08-31T07:03:33.043Z,23.51
2022-08-31T07:06:04.759Z,23.53
2022-08-31T07:08:31.800Z,23.51
2022-08-31T07:10:58.473Z,23.52
2022-08-31T07:13:25.599Z,23.54
2022-08-31T07:15:52.237Z,23.53
2022-08-31T07:18:18.891Z,23.56
2022-08-31T07:20:45.564Z,23.62
2022-08-31T07:23:12.196Z,23.65
2022-08-31T07:25:39.500Z,23.64
2022-08-31T07:28:06.461Z,23.70
2022-08-31T07:30:39.939Z,23.69
2022-08-31T07:33:06.804Z,23.72
2022-08-31T07:35:33.532Z,23.78
2022-08-31T07:38:18.588Z,23.79
2022-08-31T07:41:04.061Z,23.78
2022-08-31T07:43:36.577Z,23.78
2022-08-31T07:46:03.246Z,23.81
2022-08-31T07:48:31.739Z,23.81
2022-08-31T07:51:00.226Z,23.84
2022-08-31T07:53:26.896Z,23.86
2022-08-31T07:55:55.660Z,23.88
2022-08-31T07:58:22.717Z,23.89
2022-08-31T08:00:50.426Z,23.86
2022-08-31T08:03:17.138Z,23.93
2022-08-31T08:05:44.144Z,23.95
2022-08-31T08:08:13.874Z,23.94
2022-08-31T08:10:46.654Z,23.89
2022-08-31T08:13:20.460Z,23.94
2022-08-31T08:15:48.795Z,23.98
2022-08-31T08:18:15.480Z,24.02
2022-08-31T08:20:42.154Z,24.02
2022-08-31T08:23:14.550Z,23.99
2022-08-31T08:25:43.587Z,24.02
2022-08-31T08:28:38.254Z,24.00
2022-08-31T08:31:04.960Z,24.03
2022-08-31T08:33:32.117Z,24.08
2022-08-31T08:36:04.790Z,24.08
2022-08-31T08:38:31.877Z,24.08
2022-08-31T08:40:59.961Z,24.06
2022-08-31T08:43:32.473Z,24.13
2022-08-31T08:46:15.164Z,24.12
2022-08-31T08:48:55.368Z,24.11
2022-08-31T08:51:32.559Z,24.14
2022-08-31T08:54:02.128Z,24.15
2022-08-31T08:56:35.800Z,24.14
2022-08-31T08:59:02.389Z,24.16
2022-08-31T09:01:29.674Z,24.19
2022-08-31T09:04:17.174Z,24.20
2022-08-31T09:07:24.082Z,24.13
2022-08-31T09:10:18.831Z,24.18
2022-08-31T09:12:54.289Z,24.16
2022-08-31T09:15:36.481Z,24.24
2022-08-31T09:18:12.575Z,24.21
2022-08-31T09:20:41.240Z,24.25
2022-08-31T09:23:08.209Z,24.30
2022-08-31T09:25:44.720Z,24.28
2022-08-31T09:28:15.222Z,24.28
2022-08-31T09:30:44.741Z,24.32
2022-08-31T09:33:32.565Z,24.36
2022-08-31T09:36:16.316Z,24.35
2022-08-31T09:38:46.931Z,24.37
2022-08-31T09:41:32.166Z,24.31
2022-08-31T09:44:24.520Z,24.38
2022-08-31T09:46:54.301Z,24.36
2022-08-31T09:49:28.883Z,24.38
2022-08-31T09:52:49.310Z,24.39
2022-08-31T09:55:25.392Z,24.39
2022-08-31T09:57:57.663Z,24.39
2022-08-31T10:00:42.671Z,24.45
2022-08-31T10:03:20.801Z,24.47
2022-08-31T10:05:50.529Z,24.49
2022-08-31T10:08:39.243Z,24.46
2022-08-31T10:11:12.285Z,24.43
2022-08-31T10:14:04.493Z,24.49
2022-08-31T10:16:36.417Z,24.52
2022-08-31T10:19:58.358Z,24.56
2022-08-31T10:22:31.868Z,24.53
2022-08-31T10:25:12.907Z,24.48
2022-08-31T10:27:53.202Z,24.55
2022-08-31T10:30:36.449Z,24.58
2022-08-31T10:33:10.707Z,24.60
2022-08-31T10:35:45.868Z,24.60
2022-08-31T10:38:26.195Z,24.59
2022-08-31T10:41:00.235Z,24.63
2022-08-31T10:43:34.717Z,24.62
2022-08-31T10:46:03.588Z,24.68
2022-08-31T10:48:31.978Z,24.70
2022-08-31T10:51:18.134Z,24.67
2022-08-31T10:53:53.766Z,24.68
2022-08-31T10:56:26.162Z,24.66
2022-08-31T10:59:07.158Z,24.66
2022-08-31T11:02:04.398Z,24.70
2022-08-31T11:04:39.999Z,24.73
2022-08-31T11:07:32.865Z,24.77
2022-08-31T11:10:12.078Z,24.84
2022-08-31T11:12:44.600Z,24.84
2022-08-31T11:15:40.253Z,24.80
2022-08-31T11:18:39.889Z,24.81
2022-08-31T11:21:37.820Z,24.87
2022-08-31T11:24:23.012Z,24.88
2022-08-31T11:27:14.485Z,24.89
2022-08-31T11:30:00.725Z,24.96
2022-08-31T11:32:37.724Z,24.94
2022-08-31T11:35:10.375Z,25.02
2022-08-31T11:37:50.993Z,25.06
2022-08-31T11:40:41.659Z,25.02
2022-08-31T11:43:35.057Z,25.10
2022-08-31T11:46:27.226Z,25.09
2022-08-31T11:48:54.848Z,25.10
2022-08-31T11:51:42.539Z,25.11
2022-08-31T11:54:26.702Z,25.19
2022-08-31T11:56:57.663Z,25.16
2022-08-31T11:59:32.527Z,25.17
2022-08-31T12:02:34.650Z,25.18
2022-08-31T12:05:05.286Z,25.15
2022-08-31T12:07:41.268Z,25.19
2022-08-31T12:10:45.113Z,25.25
2022-08-31T12:13:20.458Z,25.20
2022-08-31T12:15:49.816Z,25.19
2022-08-31T12:18:46.697Z,25.26
2022-08-31T12:21:50.784Z,25.23
2022-08-31T12:24:36.150Z,25.31
2022-08-31T12:27:20.085Z,25.19
2022-08-31T12:29:46.771Z,25.23
2022-08-31T12:32:13.294Z,25.24
2022-08-31T12:35:08.886Z,25.32
2022-08-31T12:37:37.335Z,25.30
2022-08-31T12:40:22.623Z,25.27
2022-08-31T12:42:59.345Z,25.29
2022-08-31T12:45:44.085Z,25.32
2022-08-31T12:48:28.951Z,25.35
2022-08-31T12:51:21.098Z,25.33
2022-08-31T12:54:21.688Z,25.38
2022-08-31T12:56:51.138Z,25.43
2022-08-31T12:59:23.585Z,25.49
2022-08-31T13:01:51.153Z,25.41
2022-08-31T13:04:19.321Z,25.40
2022-08-31T13:06:48.288Z,25.42
2022-08-31T13:09:31.847Z,25.47
2022-08-31T13:11:59.518Z,25.50
2022-08-31T13:14:40.582Z,25.52
2022-08-31T13:17:19.649Z,25.47
2022-08-31T13:19:58.597Z,25.48
2022-08-31T13:22:34.974Z,25.50
2022-08-31T13:25:16.426Z,25.49
2022-08-31T13:27:48.663Z,25.57
2022-08-31T13:30:19.129Z,25.54
2022-08-31T13:32:49.802Z,25.59
2022-08-31T13:35:20.997Z,25.61
2022-08-31T13:38:05.442Z,25.62
2022-08-31T13:40:37.819Z,25.67
2022-08-31T13:43:09.559Z,25.73
2022-08-31T13:45:58.212Z,25.74
2022-08-31T13:48:33.932Z,25.77
2022-08-31T13:51:14.741Z,25.77
2022-08-31T13:54:12.900Z,25.74
2022-08-31T13:56:55.374Z,25.75
2022-08-31T13:59:24.547Z,25.76
2022-08-31T14:01:54.552Z,25.85
2022-08-31T14:04:48.478Z,25.82
2022-08-31T14:07:27.588Z,25.87
2022-08-31T14:10:04.945Z,25.80
2022-08-31T14:12:43.949Z,25.86
2022-08-31T14:15:10.448Z,25.96
2022-08-31T14:20:44.139Z,26.07
2022-08-31T14:23:25.807Z,26.02
2022-08-31T14:25:54.521Z,26.06
2022-08-31T14:28:28.043Z,25.99
2022-08-31T14:30:55.790Z,26.08
2022-08-31T14:33:24.148Z,26.10
2022-08-31T14:35:55.441Z,26.04
2022-08-31T14:38:25.090Z,26.11
2022-08-31T14:40:51.738Z,26.07
2022-08-31T14:43:18.528Z,26.06
2022-08-31T14:45:45.337Z,26.03
2022-08-31T14:48:16.824Z,26.07
2022-08-31T14:50:43.517Z,26.12
2022-08-31T14:53:10.308Z,26.13
2022-08-31T14:55:39.641Z,26.06
2022-08-31T14:58:12.115Z,26.05
2022-08-31T15:00:49.779Z,26.07
2022-08-31T15:03:24.257Z,26.12
2022-08-31T15:05:51.268Z,26.16
2022-08-31T15:08:23.301Z,26.23
2022-08-31T15:11:06.152Z,26.19
2022-08-31T15:13:34.058Z,26.18
2022-08-31T15:16:04.057Z,26.16
2022-08-31T15:18:33.735Z,26.15
2022-08-31T15:21:02.231Z,26.11
2022-08-31T15:23:30.629Z,26.14
2022-08-31T15:26:04.134Z,26.17
2022-08-31T15:28:31.716Z,26.11
2022-08-31T15:30:58.985Z,26.13
2022-08-31T15:33:25.805Z,26.13
2022-08-31T15:36:03.370Z,26.16
2022-08-31T15:38:29.948Z,26.11
2022-08-31T15:40:57.716Z,26.11
2022-08-31T15:43:24.483Z,26.07
2022-08-31T15:45:51.319Z,26.08
2022-08-31T15:48:36.794Z,26.08
2022-08-31T15:51:03.645Z,26.06
2022-08-31T15:53:30.672Z,26.07
2022-08-31T15:56:05.797Z,26.10
2022-08-31T15:58:33.784Z,26.02
2022-08-31T16:01:01.113Z,26.05
2022-08-31T16:03:34.362Z,25.98
2022-08-31T16:06:04.125Z,26.04
2022-08-31T16:08:30.791Z,26.02
2022-08-31T16:10:57.384Z,26.07
2022-08-31T16:13:24.004Z,26.02
2022-08-31T16:15:52.279Z,26.08
2022-08-31T16:18:22.381Z,26.00
2022-08-31T16:20:50.443Z,26.03
2022-08-31T16:23:17.264Z,25.97
2022-08-31T16:25:48.582Z,26.06
2022-08-31T16:28:19.340Z,25.99
2022-08-31T16:30:46.192Z,26.08
2022-08-31T16:33:12.819Z,26.05
2022-08-31T16:35:39.679Z,26.00
2022-08-31T16:38:07.078Z,26.01
2022-08-31T16:40:34.167Z,26.04
2022-08-31T16:43:01.598Z,25.99
2022-08-31T16:45:28.289Z,26.04
2022-08-31T16:48:14.954Z,26.11
2022-08-31T16:50:48.628Z,26.08
2022-08-31T16:53:18.073Z,26.10
2022-08-31T16:55:47.337Z,26.10
2022-08-31T16:58:24.925Z,26.09
2022-08-31T17:01:12.682Z,26.15
2022-08-31T17:04:04.908Z,26.10
2022-08-31T17:06:34.424Z,26.10
2022-08-31T17:09:05.501Z,26.11
2022-08-31T17:11:46.123Z,26.13
2022-08-31T17:14:17.631Z,26.11
2022-08-31T17:16:44.639Z,26.11
2022-08-31T17:19:13.591Z,26.15
2022-08-31T17:21:49.748Z,26.14
2022-08-31T17:24:28.290Z,26.12
2022-08-31T17:26:59.612Z,26.13
2022-08-31T17:29:28.052Z,26.12
2022-08-31T17:31:55.951Z,26.15
2022-08-31T17:34:26.898Z,26.12
2022-08-31T17:36:54.805Z,26.13
2022-08-31T17:39:21.897Z,26.12
2022-08-31T17:41:50.530Z,26.11
2022-08-31T17:44:19.515Z,26.13
2022-08-31T17:46:50.056Z,26.15
2022-08-31T17:49:19.172Z,26.16
2022-08-31T17:51:47.997Z,26.12
2022-08-31T17:54:18.872Z,26.08
2022-08-31T17:56:53.386Z,26.16
2022-08-31T17:59:23.233Z,26.17
2022-08-31T18:01:52.390Z,26.12
2022-08-31T18:04:20.862Z,26.12
2022-08-31T18:06:51.528Z,26.06
2022-08-31T18:09:20.364Z,26.02
2022-08-31T18:11:47.788Z,26.07
2022-08-31T18:14:16.648Z,26.07
2022-08-31T18:16:45.009Z,25.97
2022-08-31T18:19:12.342Z,25.97
2022-08-31T18:21:38.957Z,25.97
2022-08-31T18:24:06.420Z,25.93
2022-08-31T18:26:36.335Z,25.98
2022-08-31T18:29:05.864Z,25.91
2022-08-31T18:31:33.359Z,25.90
2022-08-31T18:34:01.743Z,26.00
2022-08-31T18:36:28.914Z,25.92
2022-08-31T18:38:57.653Z,25.95
2022-08-31T18:41:45.752Z,25.94
2022-08-31T18:44:32.024Z,25.89
2022-08-31T18:47:09.454Z,25.92
2022-08-31T18:49:41.922Z,25.86
2022-08-31T18:52:24.567Z,25.96
2022-08-31T18:54:56.493Z,25.90
2022-08-31T18:57:25.206Z,25.89
2022-08-31T18:59:51.918Z,25.84
2022-08-31T19:02:22.744Z,25.89
2022-08-31T19:04:50.785Z,25.86
2022-08-31T19:07:18.743Z,25.84
2022-08-31T19:09:45.907Z,25.95
2022-08-31T19:12:16.262Z,25.86
2022-08-31T19:14:43.680Z,25.91
2022-08-31T19:17:11.610Z,25.81
2022-08-31T19:19:38.243Z,25.83
2022-08-31T19:22:04.912Z,25.81
2022-08-31T19:24:32.944Z,25.90
2022-08-31T19:27:00.421Z,25.84
2022-08-31T19:29:29.867Z,25.82
2022-08-31T19:31:59.361Z,25.79
2022-08-31T19:34:31.862Z,25.76
2022-08-31T19:36:59.546Z,25.72
2022-08-31T19:39:28.713Z,25.74
2022-08-31T19:42:05.881Z,25.68
2022-08-31T19:47:27.914Z,25.65
2022-08-31T19:49:55.159Z,25.60
2022-08-31T19:52:24.278Z,25.65
2022-08-31T19:54:52.219Z,25.59
2022-08-31T19:57:21.479Z,25.61
2022-08-31T19:59:49.662Z,25.60
2022-08-31T20:02:17.224Z,25.58
2022-08-31T20:04:45.318Z,25.54
2022-08-31T20:07:13.542Z,25.51
2022-08-31T20:09:40.385Z,25.54
2022-08-31T20:12:07.094Z,25.47
2022-08-31T20:14:33.744Z,25.49
2022-08-31T20:17:00.514Z,25.51
2022-08-31T20:19:28.217Z,25.49
2022-08-31T20:21:59.961Z,25.50
2022-08-31T20:24:27.447Z,25.45
2022-08-31T20:26:57.251Z,25.43
2022-08-31T20:29:23.940Z,25.41
2022-08-31T20:31:52.366Z,25.37
2022-08-31T20:34:22.073Z,25.46
2022-08-31T20:36:58.518Z,25.42
2022-08-31T20:39:29.505Z,25.41
2022-08-31T20:41:58.837Z,25.41
2022-08-31T20:44:34.823Z,25.49
2022-08-31T20:47:26.637Z,25.38
2022-08-31T20:49:55.778Z,25.34
2022-08-31T20:52:24.770Z,25.36
2022-08-31T20:55:01.751Z,25.28
2022-08-31T20:57:29.604Z,25.31
2022-08-31T20:59:56.218Z,25.34
2022-08-31T21:02:22.894Z,25.32
2022-08-31T21:04:50.151Z,25.29
2022-08-31T21:07:19.054Z,25.29
2022-08-31T21:09:46.298Z,25.25
2022-08-31T21:12:18.108Z,25.25
2022-08-31T21:14:45.623Z,25.28
2022-08-31T21:17:15.831Z,25.22
2022-08-31T21:19:43.549Z,25.24
2022-08-31T21:22:13.153Z,25.22
2022-08-31T21:24:43.369Z,25.18
2022-08-31T21:27:13.581Z,25.25
2022-08-31T21:29:40.282Z,25.25
2022-08-31T21:32:09.480Z,25.26
2022-08-31T21:34:36.741Z,25.21
2022-08-31T21:37:03.402Z,25.15
2022-08-31T21:39:32.257Z,25.15
2022-08-31T21:41:59.329Z,25.16
2022-08-31T21:44:26.144Z,25.11
2022-08-31T21:46:52.825Z,25.15
2022-08-31T21:49:19.640Z,25.11
2022-08-31T21:51:52.297Z,25.06
2022-08-31T21:54:20.921Z,25.06
2022-08-31T21:56:52.927Z,25.08
2022-08-31T21:59:21.056Z,25.02
2022-08-31T22:01:48.157Z,25.02
2022-08-31T22:04:16.227Z,25.04
2022-08-31T22:06:43.229Z,25.07
2022-08-31T22:09:13.548Z,25.00
2022-08-31T22:11:46.038Z,24.94
2022-08-31T22:14:16.404Z,24.96
2022-08-31T22:16:46.610Z,24.95
2022-08-31T22:19:15.528Z,24.99
2022-08-31T22:21:44.499Z,24.95
2022-08-31T22:24:20.915Z,24.93
2022-08-31T22:26:54.748Z,24.91
2022-08-31T22:29:24.403Z,24.98
2022-08-31T22:31:53.631Z,24.96
2022-08-31T22:34:21.165Z,24.94
2022-08-31T22:36:51.991Z,24.99
2022-08-31T22:39:22.489Z,24.97
2022-08-31T22:41:49.577Z,24.93
2022-08-31T22:44:19.365Z,24.95
2022-08-31T22:46:46.528Z,24.97
2022-08-31T22:49:14.406Z,24.96
2022-08-31T22:51:42.349Z,24.95
2022-08-31T22:54:10.180Z,24.86
2022-08-31T22:56:38.672Z,24.87
2022-08-31T22:59:08.321Z,24.86
2022-08-31T23:01:38.295Z,24.88
2022-08-31T23:04:06.878Z,24.86
2022-08-31T23:06:35.447Z,24.80
2022-08-31T23:09:02.996Z,24.86
2022-08-31T23:11:29.714Z,24.85
2022-08-31T23:13:57.352Z,24.79
2022-08-31T23:16:46.432Z,24.83
2022-08-31T23:19:19.848Z,24.79
2022-08-31T23:21:52.537Z,24.80
2022-08-31T23:24:30.402Z,24.81
2022-08-31T23:27:01.648Z,24.82
2022-08-31T23:29:32.063Z,24.80
2022-08-31T23:32:00.788Z,24.79
2022-08-31T23:34:27.988Z,24.80
2022-08-31T23:36:55.598Z,24.78
2022-08-31T23:39:23.795Z,24.70
2022-08-31T23:41:51.112Z,24.70
2022-08-31T23:44:20.475Z,24.70
2022-08-31T23:46:47.320Z,24.60
2022-08-31T23:49:17.379Z,24.66
2022-08-31T23:51:44.405Z,24.66
2022-08-31T23:54:12.528Z,24.67
2022-08-31T23:56:41.760Z,24.69
2022-08-31T23:59:11.500Z,24.68
